sensor_id;sensor_type;location;lat;lon;timestamp;P1;durP1;ratioP1;P2;durP2;ratioP2
56581;SDS011;42463;52.214;21.238;2023-08-31T00:01:49;11.50;;;7.90;;
56581;SDS011;42463;52.214;21.238;2023-08-31T00:03:56;10.40;;;7.80;;
56581;SDS011;42463;52.214;21.238;2023-08-31T00:06:03;11.90;;;9.20;;
56581;SDS011;42463;52.214;21.238;2023-08-31T00:08:10;12.30;;;8.30;;
56581;SDS011;42463;52.214;21.238;2023-08-31T00:10:16;9.40;;;7.90;;
56581;SDS011;42463;52.214;21.238;2023-08-31T00:12:22;9.30;;;8.10;;
56581;SDS011;42463;52.214;21.238;2023-08-31T00:14:28;11.40;;;8.20;;
56581;SDS011;42463;52.214;21.238;2023-08-31T00:16:36;9.90;;;8.50;;
56581;SDS011;42463;52.214;21.238;2023-08-31T00:18:41;11.60;;;8.50;;
56581;SDS011;42463;52.214;21.238;2023-08-31T00:20:48;9.00;;;7.90;;
56581;SDS011;42463;52.214;21.238;2023-08-31T00:22:54;10.40;;;8.40;;
56581;SDS011;42463;52.214;21.238;2023-08-31T00:24:59;8.80;;;7.90;;
56581;SDS011;42463;52.214;21.238;2023-08-31T00:27:06;9.30;;;8.20;;
56581;SDS011;42463;52.214;21.238;2023-08-31T00:29:15;9.50;;;8.00;;
56581;SDS011;42463;52.214;21.238;2023-08-31T00:31:21;10.10;;;8.10;;
56581;SDS011;42463;52.214;21.238;2023-08-31T00:33:27;11.70;;;7.90;;
56581;SDS011;42463;52.214;21.238;2023-08-31T00:35:34;10.00;;;7.80;;
56581;SDS011;42463;52.214;21.238;2023-08-31T00:37:40;11.60;;;7.50;;
56581;SDS011;42463;52.214;21.238;2023-08-31T00:39:45;10.20;;;7.40;;
56581;SDS011;42463;52.214;21.238;2023-08-31T00:41:54;9.70;;;7.30;;
56581;SDS011;42463;52.214;21.238;2023-08-31T00:44:00;8.80;;;7.50;;
56581;SDS011;42463;52.214;21.238;2023-08-31T00:46:07;11.20;;;7.80;;
56581;SDS011;42463;52.214;21.238;2023-08-31T00:48:13;10.30;;;7.20;;
56581;SDS011;42463;52.214;21.238;2023-08-31T00:50:20;8.90;;;7.30;;
56581;SDS011;42463;52.214;21.238;2023-08-31T00:52:26;9.80;;;7.80;;
56581;SDS011;42463;52.214;21.238;2023-08-31T00:54:32;9.70;;;7.40;;
56581;SDS011;42463;52.214;21.238;2023-08-31T00:56:38;9.00;;;7.10;;
56581;SDS011;42463;52.214;21.238;2023-08-31T00:58:45;8.10;;;7.00;;
56581;SDS011;42463;52.214;21.238;2023-08-31T01:03:47;14.50;;;7.60;;
56581;SDS011;42463;52.214;21.238;2023-08-31T01:06:04;10.50;;;7.00;;
56581;SDS011;42463;52.214;21.238;2023-08-31T01:08:19;9.60;;;7.50;;
56581;SDS011;42463;52.214;21.238;2023-08-31T01:10:32;9.00;;;6.80;;
56581;SDS011;42463;52.214;21.238;2023-08-31T01:12:50;8.20;;;7.00;;
56581;SDS011;42463;52.214;21.238;2023-08-31T01:14:59;10.20;;;6.80;;
56581;SDS011;42463;52.214;21.238;2023-08-31T01:17:12;8.40;;;6.70;;
56581;SDS011;42463;52.214;21.238;2023-08-31T01:19:27;7.40;;;6.40;;
56581;SDS011;42463;52.214;21.238;2023-08-31T01:21:43;8.10;;;6.80;;
56581;SDS011;42463;52.214;21.238;2023-08-31T01:23:52;9.10;;;6.20;;
56581;SDS011;42463;52.214;21.238;2023-08-31T01:26:03;7.90;;;6.40;;
56581;SDS011;42463;52.214;21.238;2023-08-31T01:28:10;10.90;;;6.60;;
56581;SDS011;42463;52.214;21.238;2023-08-31T01:30:17;7.50;;;6.00;;
56581;SDS011;42463;52.214;21.238;2023-08-31T01:32:22;9.50;;;6.60;;
56581;SDS011;42463;52.214;21.238;2023-08-31T01:34:29;8.00;;;6.40;;
56581;SDS011;42463;52.214;21.238;2023-08-31T01:36:35;9.10;;;5.80;;
56581;SDS011;42463;52.214;21.238;2023-08-31T01:38:47;7.80;;;5.90;;
56581;SDS011;42463;52.214;21.238;2023-08-31T01:40:59;7.80;;;5.80;;
56581;SDS011;42463;52.214;21.238;2023-08-31T01:43:09;10.30;;;6.10;;
56581;SDS011;42463;52.214;21.238;2023-08-31T01:45:18;7.10;;;5.90;;
56581;SDS011;42463;52.214;21.238;2023-08-31T01:47:26;7.40;;;5.60;;
56581;SDS011;42463;52.214;21.238;2023-08-31T01:49:36;8.50;;;6.30;;
56581;SDS011;42463;52.214;21.238;2023-08-31T01:51:43;9.60;;;5.70;;
56581;SDS011;42463;52.214;21.238;2023-08-31T01:53:48;6.00;;;5.20;;
56581;SDS011;42463;52.214;21.238;2023-08-31T01:55:57;6.10;;;5.40;;
56581;SDS011;42463;52.214;21.238;2023-08-31T01:58:03;6.90;;;5.20;;
56581;SDS011;42463;52.214;21.238;2023-08-31T02:00:10;7.00;;;5.60;;
56581;SDS011;42463;52.214;21.238;2023-08-31T02:02:19;6.80;;;4.90;;
56581;SDS011;42463;52.214;21.238;2023-08-31T02:04:25;5.40;;;4.80;;
56581;SDS011;42463;52.214;21.238;2023-08-31T02:06:33;8.10;;;5.40;;
56581;SDS011;42463;52.214;21.238;2023-08-31T02:08:39;6.10;;;4.70;;
56581;SDS011;42463;52.214;21.238;2023-08-31T02:10:47;6.80;;;4.80;;
56581;SDS011;42463;52.214;21.238;2023-08-31T02:13:00;6.00;;;4.50;;
56581;SDS011;42463;52.214;21.238;2023-08-31T02:15:06;6.10;;;4.90;;
56581;SDS011;42463;52.214;21.238;2023-08-31T02:17:13;5.20;;;4.60;;
56581;SDS011;42463;52.214;21.238;2023-08-31T02:19:19;7.90;;;4.30;;
56581;SDS011;42463;52.214;21.238;2023-08-31T02:21:25;5.30;;;4.70;;
56581;SDS011;42463;52.214;21.238;2023-08-31T02:23:31;5.60;;;4.80;;
56581;SDS011;42463;52.214;21.238;2023-08-31T02:25:38;7.40;;;4.70;;
56581;SDS011;42463;52.214;21.238;2023-08-31T02:27:45;5.20;;;4.70;;
56581;SDS011;42463;52.214;21.238;2023-08-31T02:29:52;6.10;;;4.60;;
56581;SDS011;42463;52.214;21.238;2023-08-31T02:31:58;5.50;;;4.50;;
56581;SDS011;42463;52.214;21.238;2023-08-31T02:34:04;6.10;;;4.90;;
56581;SDS011;42463;52.214;21.238;2023-08-31T02:36:10;7.50;;;5.30;;
56581;SDS011;42463;52.214;21.238;2023-08-31T02:38:15;7.10;;;4.90;;
56581;SDS011;42463;52.214;21.238;2023-08-31T02:40:23;7.80;;;4.90;;
56581;SDS011;42463;52.214;21.238;2023-08-31T02:42:29;7.90;;;5.30;;
56581;SDS011;42463;52.214;21.238;2023-08-31T02:44:35;8.50;;;5.60;;
56581;SDS011;42463;52.214;21.238;2023-08-31T02:46:41;5.30;;;4.80;;
56581;SDS011;42463;52.214;21.238;2023-08-31T02:48:49;7.10;;;5.10;;
56581;SDS011;42463;52.214;21.238;2023-08-31T02:50:55;5.90;;;4.90;;
56581;SDS011;42463;52.214;21.238;2023-08-31T02:53:04;5.10;;;4.60;;
56581;SDS011;42463;52.214;21.238;2023-08-31T02:55:10;7.40;;;5.30;;
56581;SDS011;42463;52.214;21.238;2023-08-31T02:57:16;5.40;;;4.90;;
56581;SDS011;42463;52.214;21.238;2023-08-31T02:59:23;5.30;;;4.80;;
56581;SDS011;42463;52.214;21.238;2023-08-31T03:01:28;5.90;;;5.30;;
56581;SDS011;42463;52.214;21.238;2023-08-31T03:03:34;7.50;;;4.80;;
56581;SDS011;42463;52.214;21.238;2023-08-31T03:05:40;5.70;;;5.00;;
56581;SDS011;42463;52.214;21.238;2023-08-31T03:07:46;5.90;;;5.30;;
56581;SDS011;42463;52.214;21.238;2023-08-31T03:09:52;6.70;;;5.40;;
56581;SDS011;42463;52.214;21.238;2023-08-31T03:11:58;7.20;;;4.90;;
56581;SDS011;42463;52.214;21.238;2023-08-31T03:14:05;9.20;;;5.10;;
56581;SDS011;42463;52.214;21.238;2023-08-31T03:16:12;7.40;;;5.30;;
56581;SDS011;42463;52.214;21.238;2023-08-31T03:18:18;6.70;;;5.30;;
56581;SDS011;42463;52.214;21.238;2023-08-31T03:20:24;5.60;;;5.00;;
56581;SDS011;42463;52.214;21.238;2023-08-31T03:22:30;7.90;;;5.50;;
56581;SDS011;42463;52.214;21.238;2023-08-31T03:24:36;6.30;;;5.00;;
56581;SDS011;42463;52.214;21.238;2023-08-31T03:26:41;5.90;;;5.30;;
56581;SDS011;42463;52.214;21.238;2023-08-31T03:28:47;6.70;;;5.00;;
56581;SDS011;42463;52.214;21.238;2023-08-31T03:30:56;5.50;;;4.80;;
56581;SDS011;42463;52.214;21.238;2023-08-31T03:33:03;5.90;;;5.10;;
56581;SDS011;42463;52.214;21.238;2023-08-31T03:35:10;7.60;;;5.20;;
56581;SDS011;42463;52.214;21.238;2023-08-31T03:37:16;9.30;;;5.20;;
56581;SDS011;42463;52.214;21.238;2023-08-31T03:39:23;6.00;;;4.90;;
56581;SDS011;42463;52.214;21.238;2023-08-31T03:41:29;5.40;;;4.70;;
56581;SDS011;42463;52.214;21.238;2023-08-31T03:43:35;5.70;;;5.10;;
56581;SDS011;42463;52.214;21.238;2023-08-31T03:45:41;5.70;;;4.70;;
56581;SDS011;42463;52.214;21.238;2023-08-31T03:47:47;5.50;;;4.40;;
56581;SDS011;42463;52.214;21.238;2023-08-31T03:49:53;4.60;;;4.10;;
56581;SDS011;42463;52.214;21.238;2023-08-31T03:51:58;6.90;;;4.50;;
56581;SDS011;42463;52.214;21.238;2023-08-31T03:54:04;4.90;;;4.40;;
56581;SDS011;42463;52.214;21.238;2023-08-31T03:56:11;6.40;;;4.40;;
56581;SDS011;42463;52.214;21.238;2023-08-31T03:58:16;4.80;;;4.40;;
56581;SDS011;42463;52.214;21.238;2023-08-31T04:00:24;6.40;;;4.00;;
56581;SDS011;42463;52.214;21.238;2023-08-31T04:02:30;4.60;;;4.10;;
56581;SDS011;42463;52.214;21.238;2023-08-31T04:04:36;5.20;;;3.90;;
56581;SDS011;42463;52.214;21.238;2023-08-31T04:06:43;4.30;;;3.90;;
56581;SDS011;42463;52.214;21.238;2023-08-31T04:08:49;4.80;;;4.10;;
56581;SDS011;42463;52.214;21.238;2023-08-31T04:10:55;5.10;;;4.40;;
56581;SDS011;42463;52.214;21.238;2023-08-31T04:13:01;4.00;;;3.70;;
56581;SDS011;42463;52.214;21.238;2023-08-31T04:15:08;4.60;;;3.80;;
56581;SDS011;42463;52.214;21.238;2023-08-31T04:17:16;5.20;;;4.00;;
56581;SDS011;42463;52.214;21.238;2023-08-31T04:19:22;5.60;;;4.40;;
56581;SDS011;42463;52.214;21.238;2023-08-31T04:21:28;5.80;;;4.60;;
56581;SDS011;42463;52.214;21.238;2023-08-31T04:23:34;4.80;;;4.40;;
56581;SDS011;42463;52.214;21.238;2023-08-31T04:25:40;5.50;;;4.20;;
56581;SDS011;42463;52.214;21.238;2023-08-31T04:27:46;4.40;;;4.00;;
56581;SDS011;42463;52.214;21.238;2023-08-31T04:29:52;4.50;;;4.00;;
56581;SDS011;42463;52.214;21.238;2023-08-31T04:31:58;4.50;;;4.10;;
56581;SDS011;42463;52.214;21.238;2023-08-31T04:34:03;6.10;;;4.10;;
56581;SDS011;42463;52.214;21.238;2023-08-31T04:36:10;6.70;;;4.40;;
56581;SDS011;42463;52.214;21.238;2023-08-31T04:38:16;4.30;;;3.90;;
56581;SDS011;42463;52.214;21.238;2023-08-31T04:40:22;4.60;;;3.80;;
56581;SDS011;42463;52.214;21.238;2023-08-31T04:42:28;4.50;;;3.90;;
56581;SDS011;42463;52.214;21.238;2023-08-31T04:44:34;4.30;;;3.80;;
56581;SDS011;42463;52.214;21.238;2023-08-31T04:46:40;4.30;;;3.90;;
56581;SDS011;42463;52.214;21.238;2023-08-31T04:48:46;4.80;;;3.80;;
56581;SDS011;42463;52.214;21.238;2023-08-31T04:50:51;4.90;;;4.00;;
56581;SDS011;42463;52.214;21.238;2023-08-31T04:53:01;5.20;;;4.10;;
56581;SDS011;42463;52.214;21.238;2023-08-31T04:55:08;3.90;;;3.30;;
56581;SDS011;42463;52.214;21.238;2023-08-31T04:57:16;6.00;;;3.90;;
56581;SDS011;42463;52.214;21.238;2023-08-31T04:59:22;4.40;;;3.70;;
56581;SDS011;42463;52.214;21.238;2023-08-31T05:01:28;5.00;;;3.40;;
56581;SDS011;42463;52.214;21.238;2023-08-31T05:03:35;5.90;;;3.70;;
56581;SDS011;42463;52.214;21.238;2023-08-31T05:05:42;4.00;;;3.50;;
56581;SDS011;42463;52.214;21.238;2023-08-31T05:07:47;3.90;;;3.50;;
56581;SDS011;42463;52.214;21.238;2023-08-31T05:09:53;5.70;;;3.90;;
56581;SDS011;42463;52.214;21.238;2023-08-31T05:11:59;3.80;;;3.40;;
56581;SDS011;42463;52.214;21.238;2023-08-31T05:14:06;5.60;;;3.80;;
56581;SDS011;42463;52.214;21.238;2023-08-31T05:16:11;5.30;;;3.80;;
56581;SDS011;42463;52.214;21.238;2023-08-31T05:18:18;5.20;;;3.70;;
56581;SDS011;42463;52.214;21.238;2023-08-31T05:20:24;5.80;;;3.80;;
56581;SDS011;42463;52.214;21.238;2023-08-31T05:22:30;3.70;;;3.30;;
56581;SDS011;42463;52.214;21.238;2023-08-31T05:24:36;5.60;;;3.60;;
56581;SDS011;42463;52.214;21.238;2023-08-31T05:26:42;4.20;;;3.30;;
56581;SDS011;42463;52.214;21.238;2023-08-31T05:28:47;3.90;;;3.50;;
56581;SDS011;42463;52.214;21.238;2023-08-31T05:30:54;4.30;;;3.40;;
56581;SDS011;42463;52.214;21.238;2023-08-31T05:33:01;4.70;;;3.70;;
56581;SDS011;42463;52.214;21.238;2023-08-31T05:35:08;4.70;;;3.20;;
56581;SDS011;42463;52.214;21.238;2023-08-31T05:37:14;3.50;;;3.20;;
56581;SDS011;42463;52.214;21.238;2023-08-31T05:39:20;3.50;;;3.00;;
56581;SDS011;42463;52.214;21.238;2023-08-31T05:41:26;3.80;;;3.10;;
56581;SDS011;42463;52.214;21.238;2023-08-31T05:43:31;3.00;;;2.50;;
56581;SDS011;42463;52.214;21.238;2023-08-31T05:45:38;3.30;;;2.90;;
56581;SDS011;42463;52.214;21.238;2023-08-31T05:47:44;3.90;;;2.90;;
56581;SDS011;42463;52.214;21.238;2023-08-31T05:49:49;4.20;;;2.60;;
56581;SDS011;42463;52.214;21.238;2023-08-31T05:51:55;3.20;;;2.90;;
56581;SDS011;42463;52.214;21.238;2023-08-31T05:54:01;2.60;;;2.40;;
56581;SDS011;42463;52.214;21.238;2023-08-31T05:56:07;4.40;;;2.80;;
56581;SDS011;42463;52.214;21.238;2023-08-31T05:58:13;4.00;;;2.60;;
56581;SDS011;42463;52.214;21.238;2023-08-31T06:00:20;2.80;;;2.40;;
56581;SDS011;42463;52.214;21.238;2023-08-31T06:02:26;4.60;;;2.30;;
56581;SDS011;42463;52.214;21.238;2023-08-31T06:04:31;2.80;;;2.40;;
56581;SDS011;42463;52.214;21.238;2023-08-31T06:06:38;3.10;;;2.20;;
56581;SDS011;42463;52.214;21.238;2023-08-31T06:08:44;2.60;;;2.20;;
56581;SDS011;42463;52.214;21.238;2023-08-31T06:10:51;2.50;;;2.00;;
56581;SDS011;42463;52.214;21.238;2023-08-31T06:12:57;2.90;;;2.20;;
56581;SDS011;42463;52.214;21.238;2023-08-31T06:15:03;2.80;;;2.20;;
56581;SDS011;42463;52.214;21.238;2023-08-31T06:17:10;2.80;;;2.30;;
56581;SDS011;42463;52.214;21.238;2023-08-31T06:19:17;2.50;;;2.20;;
56581;SDS011;42463;52.214;21.238;2023-08-31T06:21:23;3.00;;;2.20;;
56581;SDS011;42463;52.214;21.238;2023-08-31T06:23:29;3.10;;;2.10;;
56581;SDS011;42463;52.214;21.238;2023-08-31T06:25:34;3.10;;;1.90;;
56581;SDS011;42463;52.214;21.238;2023-08-31T06:27:41;3.60;;;2.40;;
56581;SDS011;42463;52.214;21.238;2023-08-31T06:29:47;3.20;;;1.90;;
56581;SDS011;42463;52.214;21.238;2023-08-31T06:31:53;1.90;;;1.70;;
56581;SDS011;42463;52.214;21.238;2023-08-31T06:33:59;3.10;;;1.80;;
56581;SDS011;42463;52.214;21.238;2023-08-31T06:36:05;2.20;;;1.60;;
56581;SDS011;42463;52.214;21.238;2023-08-31T06:38:11;2.40;;;1.70;;
56581;SDS011;42463;52.214;21.238;2023-08-31T06:40:17;4.10;;;1.50;;
56581;SDS011;42463;52.214;21.238;2023-08-31T06:42:22;2.40;;;1.50;;
56581;SDS011;42463;52.214;21.238;2023-08-31T06:44:29;2.00;;;1.40;;
56581;SDS011;42463;52.214;21.238;2023-08-31T06:46:35;2.40;;;1.70;;
56581;SDS011;42463;52.214;21.238;2023-08-31T06:48:41;2.00;;;1.70;;
56581;SDS011;42463;52.214;21.238;2023-08-31T06:50:48;1.90;;;1.30;;
56581;SDS011;42463;52.214;21.238;2023-08-31T06:52:53;1.70;;;1.50;;
56581;SDS011;42463;52.214;21.238;2023-08-31T06:54:59;2.50;;;1.50;;
56581;SDS011;42463;52.214;21.238;2023-08-31T06:57:07;2.60;;;1.50;;
56581;SDS011;42463;52.214;21.238;2023-08-31T06:59:12;2.40;;;1.90;;
56581;SDS011;42463;52.214;21.238;2023-08-31T07:01:18;1.70;;;1.20;;
56581;SDS011;42463;52.214;21.238;2023-08-31T07:03:24;3.30;;;1.60;;
56581;SDS011;42463;52.214;21.238;2023-08-31T07:05:32;1.90;;;1.40;;
56581;SDS011;42463;52.214;21.238;2023-08-31T07:07:40;2.60;;;1.40;;
56581;SDS011;42463;52.214;21.238;2023-08-31T07:09:47;3.80;;;1.60;;
56581;SDS011;42463;52.214;21.238;2023-08-31T07:11:53;2.50;;;1.90;;
56581;SDS011;42463;52.214;21.238;2023-08-31T07:13:59;2.80;;;1.70;;
56581;SDS011;42463;52.214;21.238;2023-08-31T07:16:05;2.80;;;1.80;;
56581;SDS011;42463;52.214;21.238;2023-08-31T07:18:11;3.50;;;1.50;;
56581;SDS011;42463;52.214;21.238;2023-08-31T07:20:16;4.00;;;1.70;;
56581;SDS011;42463;52.214;21.238;2023-08-31T07:22:23;3.60;;;1.80;;
56581;SDS011;42463;52.214;21.238;2023-08-31T07:24:29;2.90;;;1.70;;
56581;SDS011;42463;52.214;21.238;2023-08-31T07:26:34;2.80;;;1.50;;
56581;SDS011;42463;52.214;21.238;2023-08-31T07:28:40;2.20;;;1.60;;
56581;SDS011;42463;52.214;21.238;2023-08-31T07:30:46;3.00;;;2.00;;
56581;SDS011;42463;52.214;21.238;2023-08-31T07:32:52;3.10;;;1.80;;
56581;SDS011;42463;52.214;21.238;2023-08-31T07:34:58;2.40;;;1.50;;
56581;SDS011;42463;52.214;21.238;2023-08-31T07:37:06;2.70;;;1.60;;
56581;SDS011;42463;52.214;21.238;2023-08-31T07:39:12;3.40;;;1.90;;
56581;SDS011;42463;52.214;21.238;2023-08-31T07:41:18;5.40;;;1.70;;
56581;SDS011;42463;52.214;21.238;2023-08-31T07:43:24;3.30;;;1.80;;
56581;SDS011;42463;52.214;21.238;2023-08-31T07:45:30;2.30;;;1.60;;
56581;SDS011;42463;52.214;21.238;2023-08-31T07:47:37;3.00;;;1.50;;
56581;SDS011;42463;52.214;21.238;2023-08-31T07:49:43;2.10;;;1.50;;
56581;SDS011;42463;52.214;21.238;2023-08-31T07:51:49;1.70;;;1.40;;
56581;SDS011;42463;52.214;21.238;2023-08-31T07:53:55;3.80;;;2.00;;
56581;SDS011;42463;52.214;21.238;2023-08-31T07:56:01;2.50;;;1.50;;
56581;SDS011;42463;52.214;21.238;2023-08-31T07:58:07;4.00;;;1.60;;
56581;SDS011;42463;52.214;21.238;2023-08-31T08:00:13;3.30;;;1.50;;
56581;SDS011;42463;52.214;21.238;2023-08-31T08:02:19;2.40;;;1.60;;
56581;SDS011;42463;52.214;21.238;2023-08-31T08:04:25;3.60;;;1.60;;
56581;SDS011;42463;52.214;21.238;2023-08-31T08:06:32;1.60;;;1.40;;
56581;SDS011;42463;52.214;21.238;2023-08-31T08:08:38;2.60;;;1.70;;
56581;SDS011;42463;52.214;21.238;2023-08-31T08:10:44;3.10;;;1.90;;
56581;SDS011;42463;52.214;21.238;2023-08-31T08:12:50;2.20;;;1.70;;
56581;SDS011;42463;52.214;21.238;2023-08-31T08:14:56;1.80;;;1.60;;
56581;SDS011;42463;52.214;21.238;2023-08-31T08:17:02;5.20;;;2.20;;
56581;SDS011;42463;52.214;21.238;2023-08-31T08:19:08;2.60;;;1.90;;
56581;SDS011;42463;52.214;21.238;2023-08-31T08:21:14;3.10;;;2.20;;
56581;SDS011;42463;52.214;21.238;2023-08-31T08:23:20;2.80;;;2.10;;
56581;SDS011;42463;52.214;21.238;2023-08-31T08:25:27;2.50;;;1.90;;
56581;SDS011;42463;52.214;21.238;2023-08-31T08:27:33;3.30;;;1.70;;
56581;SDS011;42463;52.214;21.238;2023-08-31T08:29:39;2.10;;;1.50;;
56581;SDS011;42463;52.214;21.238;2023-08-31T08:31:46;1.60;;;1.50;;
56581;SDS011;42463;52.214;21.238;2023-08-31T08:33:51;2.20;;;1.80;;
56581;SDS011;42463;52.214;21.238;2023-08-31T08:35:57;2.00;;;1.80;;
56581;SDS011;42463;52.214;21.238;2023-08-31T08:38:04;1.60;;;1.50;;
56581;SDS011;42463;52.214;21.238;2023-08-31T08:40:10;2.20;;;1.90;;
56581;SDS011;42463;52.214;21.238;2023-08-31T08:42:16;2.60;;;1.60;;
56581;SDS011;42463;52.214;21.238;2023-08-31T08:44:23;3.30;;;1.90;;
56581;SDS011;42463;52.214;21.238;2023-08-31T08:46:32;3.00;;;1.90;;
56581;SDS011;42463;52.214;21.238;2023-08-31T08:48:39;2.80;;;1.90;;
56581;SDS011;42463;52.214;21.238;2023-08-31T08:50:45;2.90;;;1.90;;
56581;SDS011;42463;52.214;21.238;2023-08-31T08:52:52;3.00;;;1.70;;
56581;SDS011;42463;52.214;21.238;2023-08-31T08:54:58;3.10;;;1.90;;
56581;SDS011;42463;52.214;21.238;2023-08-31T08:57:05;2.70;;;1.90;;
56581;SDS011;42463;52.214;21.238;2023-08-31T08:59:11;2.70;;;1.90;;
56581;SDS011;42463;52.214;21.238;2023-08-31T09:01:17;3.30;;;1.90;;
56581;SDS011;42463;52.214;21.238;2023-08-31T09:03:25;3.20;;;1.50;;
56581;SDS011;42463;52.214;21.238;2023-08-31T09:05:32;2.80;;;1.60;;
56581;SDS011;42463;52.214;21.238;2023-08-31T09:07:38;3.00;;;1.70;;
56581;SDS011;42463;52.214;21.238;2023-08-31T09:10:06;2.70;;;1.60;;
56581;SDS011;42463;52.214;21.238;2023-08-31T09:12:13;2.00;;;1.40;;
56581;SDS011;42463;52.214;21.238;2023-08-31T09:14:19;2.10;;;1.50;;
56581;SDS011;42463;52.214;21.238;2023-08-31T09:16:26;2.00;;;1.50;;
56581;SDS011;42463;52.214;21.238;2023-08-31T09:18:33;2.70;;;1.50;;
56581;SDS011;42463;52.214;21.238;2023-08-31T09:23:02;3.20;;;1.80;;
56581;SDS011;42463;52.214;21.238;2023-08-31T09:25:08;2.50;;;1.50;;
56581;SDS011;42463;52.214;21.238;2023-08-31T09:27:14;1.80;;;1.50;;
56581;SDS011;42463;52.214;21.238;2023-08-31T09:29:20;2.50;;;1.50;;
56581;SDS011;42463;52.214;21.238;2023-08-31T09:31:26;2.40;;;1.70;;
56581;SDS011;42463;52.214;21.238;2023-08-31T09:33:35;2.40;;;1.50;;
56581;SDS011;42463;52.214;21.238;2023-08-31T09:35:42;4.20;;;1.70;;
56581;SDS011;42463;52.214;21.238;2023-08-31T09:37:55;2.60;;;1.50;;
56581;SDS011;42463;52.214;21.238;2023-08-31T09:40:02;2.40;;;1.50;;
56581;SDS011;42463;52.214;21.238;2023-08-31T09:42:09;3.20;;;1.60;;
56581;SDS011;42463;52.214;21.238;2023-08-31T09:44:17;2.60;;;1.70;;
56581;SDS011;42463;52.214;21.238;2023-08-31T09:46:23;2.20;;;1.80;;
56581;SDS011;42463;52.214;21.238;2023-08-31T09:48:29;2.50;;;1.60;;
56581;SDS011;42463;52.214;21.238;2023-08-31T09:50:35;2.30;;;1.90;;
56581;SDS011;42463;52.214;21.238;2023-08-31T09:52:42;2.30;;;1.60;;
56581;SDS011;42463;52.214;21.238;2023-08-31T09:54:49;1.70;;;1.40;;
56581;SDS011;42463;52.214;21.238;2023-08-31T09:56:55;3.00;;;1.80;;
56581;SDS011;42463;52.214;21.238;2023-08-31T09:59:03;2.30;;;1.80;;
56581;SDS011;42463;52.214;21.238;2023-08-31T10:01:09;2.60;;;2.00;;
56581;SDS011;42463;52.214;21.238;2023-08-31T10:03:15;2.60;;;1.70;;
56581;SDS011;42463;52.214;21.238;2023-08-31T10:05:21;3.10;;;1.80;;
56581;SDS011;42463;52.214;21.238;2023-08-31T10:07:28;3.70;;;1.80;;
56581;SDS011;42463;52.214;21.238;2023-08-31T10:09:34;2.10;;;1.80;;
56581;SDS011;42463;52.214;21.238;2023-08-31T10:11:41;3.10;;;1.80;;
56581;SDS011;42463;52.214;21.238;2023-08-31T10:13:48;3.40;;;1.80;;
56581;SDS011;42463;52.214;21.238;2023-08-31T10:15:56;2.10;;;1.80;;
56581;SDS011;42463;52.214;21.238;2023-08-31T10:18:03;2.50;;;2.00;;
56581;SDS011;42463;52.214;21.238;2023-08-31T10:20:11;3.10;;;1.80;;
56581;SDS011;42463;52.214;21.238;2023-08-31T10:22:20;3.20;;;1.70;;
56581;SDS011;42463;52.214;21.238;2023-08-31T10:26:58;3.20;;;1.80;;
56581;SDS011;42463;52.214;21.238;2023-08-31T10:29:28;3.70;;;1.70;;
56581;SDS011;42463;52.214;21.238;2023-08-31T10:31:34;4.80;;;2.00;;
56581;SDS011;42463;52.214;21.238;2023-08-31T10:33:41;3.70;;;2.10;;
56581;SDS011;42463;52.214;21.238;2023-08-31T10:35:51;3.90;;;1.80;;
56581;SDS011;42463;52.214;21.238;2023-08-31T10:38:14;2.50;;;1.90;;
56581;SDS011;42463;52.214;21.238;2023-08-31T10:40:20;2.00;;;1.80;;
56581;SDS011;42463;52.214;21.238;2023-08-31T10:42:26;3.70;;;1.80;;
56581;SDS011;42463;52.214;21.238;2023-08-31T10:44:32;3.40;;;2.00;;
56581;SDS011;42463;52.214;21.238;2023-08-31T10:46:43;2.60;;;1.80;;
56581;SDS011;42463;52.214;21.238;2023-08-31T10:48:53;2.90;;;2.20;;
56581;SDS011;42463;52.214;21.238;2023-08-31T10:51:00;3.20;;;2.10;;
56581;SDS011;42463;52.214;21.238;2023-08-31T10:53:09;2.80;;;2.00;;
56581;SDS011;42463;52.214;21.238;2023-08-31T10:55:15;3.20;;;2.30;;
56581;SDS011;42463;52.214;21.238;2023-08-31T10:57:26;3.40;;;2.10;;
56581;SDS011;42463;52.214;21.238;2023-08-31T10:59:44;4.30;;;2.50;;
56581;SDS011;42463;52.214;21.238;2023-08-31T11:01:57;2.00;;;1.80;;
56581;SDS011;42463;52.214;21.238;2023-08-31T11:04:10;3.20;;;2.00;;
56581;SDS011;42463;52.214;21.238;2023-08-31T11:06:15;3.00;;;2.10;;
56581;SDS011;42463;52.214;21.238;2023-08-31T11:08:23;3.10;;;2.30;;
56581;SDS011;42463;52.214;21.238;2023-08-31T11:10:29;2.70;;;2.10;;
56581;SDS011;42463;52.214;21.238;2023-08-31T11:12:36;4.70;;;2.40;;
56581;SDS011;42463;52.214;21.238;2023-08-31T11:14:42;2.80;;;2.30;;
56581;SDS011;42463;52.214;21.238;2023-08-31T11:16:47;2.20;;;2.00;;
56581;SDS011;42463;52.214;21.238;2023-08-31T11:18:53;2.70;;;1.90;;
56581;SDS011;42463;52.214;21.238;2023-08-31T11:20:59;2.90;;;2.20;;
56581;SDS011;42463;52.214;21.238;2023-08-31T11:23:08;3.60;;;2.30;;
56581;SDS011;42463;52.214;21.238;2023-08-31T11:25:15;4.60;;;2.70;;
56581;SDS011;42463;52.214;21.238;2023-08-31T11:27:21;3.50;;;2.30;;
56581;SDS011;42463;52.214;21.238;2023-08-31T11:29:27;3.20;;;2.50;;
56581;SDS011;42463;52.214;21.238;2023-08-31T11:31:37;2.30;;;2.10;;
56581;SDS011;42463;52.214;21.238;2023-08-31T11:33:44;4.70;;;2.30;;
56581;SDS011;42463;52.214;21.238;2023-08-31T11:35:52;2.60;;;2.10;;
56581;SDS011;42463;52.214;21.238;2023-08-31T11:37:59;2.70;;;2.40;;
56581;SDS011;42463;52.214;21.238;2023-08-31T11:40:07;3.80;;;2.50;;
56581;SDS011;42463;52.214;21.238;2023-08-31T11:42:14;4.30;;;2.60;;
56581;SDS011;42463;52.214;21.238;2023-08-31T11:44:22;3.00;;;2.30;;
56581;SDS011;42463;52.214;21.238;2023-08-31T11:46:29;2.60;;;2.40;;
56581;SDS011;42463;52.214;21.238;2023-08-31T11:48:36;2.80;;;2.30;;
56581;SDS011;42463;52.214;21.238;2023-08-31T11:50:43;2.60;;;2.40;;
56581;SDS011;42463;52.214;21.238;2023-08-31T11:52:50;5.60;;;2.60;;
56581;SDS011;42463;52.214;21.238;2023-08-31T11:54:56;3.60;;;2.60;;
56581;SDS011;42463;52.214;21.238;2023-08-31T11:57:03;4.10;;;2.30;;
56581;SDS011;42463;52.214;21.238;2023-08-31T11:59:11;3.90;;;2.80;;
56581;SDS011;42463;52.214;21.238;2023-08-31T12:01:20;4.60;;;2.90;;
56581;SDS011;42463;52.214;21.238;2023-08-31T12:03:26;2.70;;;2.50;;
56581;SDS011;42463;52.214;21.238;2023-08-31T12:05:45;3.50;;;2.70;;
56581;SDS011;42463;52.214;21.238;2023-08-31T12:07:54;3.20;;;2.60;;
56581;SDS011;42463;52.214;21.238;2023-08-31T12:10:03;3.10;;;2.80;;
56581;SDS011;42463;52.214;21.238;2023-08-31T12:12:09;4.20;;;2.90;;
56581;SDS011;42463;52.214;21.238;2023-08-31T12:14:21;2.90;;;2.60;;
56581;SDS011;42463;52.214;21.238;2023-08-31T12:16:32;5.30;;;2.90;;
56581;SDS011;42463;52.214;21.238;2023-08-31T12:18:39;4.20;;;2.70;;
56581;SDS011;42463;52.214;21.238;2023-08-31T12:20:46;3.00;;;2.50;;
56581;SDS011;42463;52.214;21.238;2023-08-31T12:22:54;3.40;;;2.70;;
56581;SDS011;42463;52.214;21.238;2023-08-31T12:25:00;6.90;;;3.10;;
56581;SDS011;42463;52.214;21.238;2023-08-31T12:27:07;3.40;;;3.10;;
56581;SDS011;42463;52.214;21.238;2023-08-31T12:29:14;4.30;;;3.00;;
56581;SDS011;42463;52.214;21.238;2023-08-31T12:31:21;3.10;;;2.70;;
56581;SDS011;42463;52.214;21.238;2023-08-31T12:33:28;3.00;;;2.50;;
56581;SDS011;42463;52.214;21.238;2023-08-31T12:35:33;5.00;;;3.10;;
56581;SDS011;42463;52.214;21.238;2023-08-31T12:37:39;4.70;;;2.70;;
56581;SDS011;42463;52.214;21.238;2023-08-31T12:39:45;3.90;;;3.40;;
56581;SDS011;42463;52.214;21.238;2023-08-31T12:41:51;3.30;;;3.00;;